sensor_id;sensor_type;location;lat;lon;timestamp;pressure;altitude;pressure_sealevel;temperature;humidity
40460;BME280;26164;51.138;16.952;2024-01-30T00:01:00;77119.44;;;-146.39;31.70
40460;BME280;26164;51.138;16.952;2024-01-30T00:03:46;77058.19;;;-146.39;31.66
40460;BME280;26164;51.138;16.952;2024-01-30T00:06:12;77139.84;;;-146.39;31.64
40460;BME280;26164;51.138;16.952;2024-01-30T00:08:38;77131.69;;;-146.39;31.44
40460;BME280;26164;51.138;16.952;2024-01-30T00:11:04;77148.03;;;-146.39;31.57
40460;BME280;26164;51.138;16.952;2024-01-30T00:13:30;77160.28;;;-146.39;31.69
40460;BME280;26164;51.138;16.952;2024-01-30T00:15:56;77154.16;;;-146.39;31.45
40460;BME280;26164;51.138;16.952;2024-01-30T00:18:22;77168.44;;;-146.39;31.97
40460;BME280;26164;51.138;16.952;2024-01-30T00:20:48;77176.63;;;-146.39;31.81
40460;BME280;26164;51.138;16.952;2024-01-30T00:23:14;77141.91;;;-146.39;31.56
40460;BME280;26164;51.138;16.952;2024-01-30T00:25:40;77139.84;;;-146.39;31.29
40460;BME280;26164;51.138;16.952;2024-01-30T00:28:05;77117.41;;;-146.39;31.25
40460;BME280;26164;51.138;16.952;2024-01-30T00:30:32;77080.66;;;-146.39;30.99
40460;BME280;26164;51.138;16.952;2024-01-30T00:32:58;77143.94;;;-146.39;31.36
40460;BME280;26164;51.138;16.952;2024-01-30T00:35:25;77111.28;;;-146.39;31.04
40460;BME280;26164;51.138;16.952;2024-01-30T00:37:50;77133.72;;;-146.39;31.25
40460;BME280;26164;51.138;16.952;2024-01-30T00:40:17;77250.13;;;-146.39;32.31
40460;BME280;26164;51.138;16.952;2024-01-30T00:42:43;77221.53;;;-146.39;32.38
40460;BME280;26164;51.138;16.952;2024-01-30T00:45:16;77158.25;;;-146.39;32.09
40460;BME280;26164;51.138;16.952;2024-01-30T00:47:42;77135.78;;;-146.39;31.95
40460;BME280;26164;51.138;16.952;2024-01-30T00:50:09;77188.88;;;-146.39;31.71
40460;BME280;26164;51.138;16.952;2024-01-30T00:52:35;77062.28;;;-146.39;31.18
40460;BME280;26164;51.138;16.952;2024-01-30T00:55:03;77021.44;;;-146.39;30.75
40460;BME280;26164;51.138;16.952;2024-01-30T00:57:29;77119.44;;;-146.39;31.23
40460;BME280;26164;51.138;16.952;2024-01-30T00:59:55;77090.84;;;-146.39;31.13
40460;BME280;26164;51.138;16.952;2024-01-30T01:02:21;77127.59;;;-146.39;31.17
40460;BME280;26164;51.138;16.952;2024-01-30T01:04:48;77164.38;;;-146.39;31.55
40460;BME280;26164;51.138;16.952;2024-01-30T01:07:14;77184.78;;;-146.39;31.61
40460;BME280;26164;51.138;16.952;2024-01-30T01:09:40;77029.59;;;-146.39;30.81
40460;BME280;26164;51.138;16.952;2024-01-30T01:12:06;77050.03;;;-146.39;30.83
40460;BME280;26164;51.138;16.952;2024-01-30T01:14:33;77001.03;;;-146.39;30.48
40460;BME280;26164;51.138;16.952;2024-01-30T01:16:58;77013.28;;;-146.39;30.49
40460;BME280;26164;51.138;16.952;2024-01-30T01:19:25;77070.44;;;-146.39;30.97
40460;BME280;26164;51.138;16.952;2024-01-30T01:21:51;77058.19;;;-146.39;30.58
40460;BME280;26164;51.138;16.952;2024-01-30T01:24:17;77103.09;;;-146.39;30.99
40460;BME280;26164;51.138;16.952;2024-01-30T01:26:43;77078.59;;;-146.39;30.86
40460;BME280;26164;51.138;16.952;2024-01-30T01:29:09;77037.78;;;-146.39;30.69
40460;BME280;26164;51.138;16.952;2024-01-30T01:31:38;76929.56;;;-146.39;30.08
40460;BME280;26164;51.138;16.952;2024-01-30T01:34:11;76982.66;;;-146.39;30.54
40460;BME280;26164;51.138;16.952;2024-01-30T01:36:36;76907.09;;;-146.39;30.14
40460;BME280;26164;51.138;16.952;2024-01-30T01:39:03;77062.28;;;-146.39;31.08
40460;BME280;26164;51.138;16.952;2024-01-30T01:41:33;76854.03;;;-146.39;29.78
40460;BME280;26164;51.138;16.952;2024-01-30T01:43:59;76935.69;;;-146.39;29.83
40460;BME280;26164;51.138;16.952;2024-01-30T01:46:30;77041.84;;;-146.39;30.89
40460;BME280;26164;51.138;16.952;2024-01-30T01:49:00;77201.13;;;-146.39;32.41
40460;BME280;26164;51.138;16.952;2024-01-30T01:51:27;77082.69;;;-146.39;31.81
40460;BME280;26164;51.138;16.952;2024-01-30T01:53:55;77099.03;;;-146.39;31.58
40460;BME280;26164;51.138;16.952;2024-01-30T01:56:22;77099.03;;;-146.39;31.71
40460;BME280;26164;51.138;16.952;2024-01-30T01:58:49;77184.78;;;-146.39;31.99
40460;BME280;26164;51.138;16.952;2024-01-30T02:01:19;77146.00;;;-146.39;32.37
40460;BME280;26164;51.138;16.952;2024-01-30T02:03:46;77011.22;;;-146.39;31.04
40460;BME280;26164;51.138;16.952;2024-01-30T02:06:13;76992.84;;;-146.39;30.89
40460;BME280;26164;51.138;16.952;2024-01-30T02:08:39;77168.44;;;-146.39;31.85
40460;BME280;26164;51.138;16.952;2024-01-30T02:11:05;77107.19;;;-146.39;31.57
40460;BME280;26164;51.138;16.952;2024-01-30T02:13:32;77107.19;;;-146.39;31.56
40460;BME280;26164;51.138;16.952;2024-01-30T02:15:57;77107.19;;;-146.39;31.51
40460;BME280;26164;51.138;16.952;2024-01-30T02:18:24;77080.66;;;-146.39;31.60
40460;BME280;26164;51.138;16.952;2024-01-30T02:20:55;77021.44;;;-146.39;31.15
40460;BME280;26164;51.138;16.952;2024-01-30T02:23:24;76956.09;;;-146.39;30.75
40460;BME280;26164;51.138;16.952;2024-01-30T02:25:50;77023.47;;;-146.39;30.96
40460;BME280;26164;51.138;16.952;2024-01-30T02:28:19;76972.44;;;-146.39;30.55
40460;BME280;26164;51.138;16.952;2024-01-30T02:30:46;76943.84;;;-146.39;30.61
40460;BME280;26164;51.138;16.952;2024-01-30T02:33:13;76986.72;;;-146.39;30.78
40460;BME280;26164;51.138;16.952;2024-01-30T02:35:39;77017.34;;;-146.39;30.74
40460;BME280;26164;51.138;16.952;2024-01-30T02:38:05;77050.03;;;-146.39;30.94
40460;BME280;26164;51.138;16.952;2024-01-30T02:40:31;76941.81;;;-146.39;30.58
40460;BME280;26164;51.138;16.952;2024-01-30T02:42:59;76919.34;;;-146.39;30.53
40460;BME280;26164;51.138;16.952;2024-01-30T02:45:25;76978.56;;;-146.39;30.89
40460;BME280;26164;51.138;16.952;2024-01-30T02:47:52;76976.53;;;-146.39;30.71
40460;BME280;26164;51.138;16.952;2024-01-30T02:50:18;77033.69;;;-146.39;31.20
40460;BME280;26164;51.138;16.952;2024-01-30T02:52:44;77031.66;;;-146.39;31.13
40460;BME280;26164;51.138;16.952;2024-01-30T02:55:10;77017.34;;;-146.39;31.12
40460;BME280;26164;51.138;16.952;2024-01-30T02:57:38;77094.94;;;-146.39;31.54
40460;BME280;26164;51.138;16.952;2024-01-30T03:00:04;76988.78;;;-146.39;31.03
40460;BME280;26164;51.138;16.952;2024-01-30T03:02:32;76984.69;;;-146.39;31.11
40460;BME280;26164;51.138;16.952;2024-01-30T03:05:02;77082.69;;;-146.39;31.84
40460;BME280;26164;51.138;16.952;2024-01-30T03:07:30;77074.53;;;-146.39;31.56
40460;BME280;26164;51.138;16.952;2024-01-30T03:09:56;76984.69;;;-146.39;31.06
40460;BME280;26164;51.138;16.952;2024-01-30T03:12:22;76949.97;;;-146.39;30.86
40460;BME280;26164;51.138;16.952;2024-01-30T03:14:48;76907.09;;;-146.39;30.41
40460;BME280;26164;51.138;16.952;2024-01-30T03:17:16;76927.53;;;-146.39;30.62
40460;BME280;26164;51.138;16.952;2024-01-30T03:19:42;76896.91;;;-146.39;30.46
40460;BME280;26164;51.138;16.952;2024-01-30T03:22:10;76939.78;;;-146.39;30.71
40460;BME280;26164;51.138;16.952;2024-01-30T03:24:35;76919.34;;;-146.39;30.45
40460;BME280;26164;51.138;16.952;2024-01-30T03:27:02;76894.84;;;-146.39;30.43
40460;BME280;26164;51.138;16.952;2024-01-30T03:29:31;77074.53;;;-146.39;31.60
40460;BME280;26164;51.138;16.952;2024-01-30T03:31:58;76923.44;;;-146.39;30.57
40460;BME280;26164;51.138;16.952;2024-01-30T03:34:40;77013.28;;;-146.39;30.89
40460;BME280;26164;51.138;16.952;2024-01-30T03:37:06;76992.84;;;-146.39;31.20
40460;BME280;26164;51.138;16.952;2024-01-30T03:39:32;77017.34;;;-146.39;31.32
40460;BME280;26164;51.138;16.952;2024-01-30T03:41:58;77009.19;;;-146.39;31.27
40460;BME280;26164;51.138;16.952;2024-01-30T03:44:24;77017.34;;;-146.39;31.42
40460;BME280;26164;51.138;16.952;2024-01-30T03:46:50;77233.78;;;-146.39;32.85
40460;BME280;26164;51.138;16.952;2024-01-30T03:49:16;77172.53;;;-146.39;32.74
40460;BME280;26164;51.138;16.952;2024-01-30T03:51:42;77103.09;;;-146.39;32.30
40460;BME280;26164;51.138;16.952;2024-01-30T03:54:09;77119.44;;;-146.39;32.44
40460;BME280;26164;51.138;16.952;2024-01-30T03:56:36;77111.28;;;-146.39;32.42
40460;BME280;26164;51.138;16.952;2024-01-30T03:59:01;77164.38;;;-146.39;32.75
40460;BME280;26164;51.138;16.952;2024-01-30T04:01:32;77197.03;;;-146.39;32.91
40460;BME280;26164;51.138;16.952;2024-01-30T04:03:58;77176.63;;;-146.39;32.87
40460;BME280;26164;51.138;16.952;2024-01-30T04:06:25;77160.28;;;-146.39;32.90
40460;BME280;26164;51.138;16.952;2024-01-30T04:08:51;77080.66;;;-146.39;32.14
40460;BME280;26164;51.138;16.952;2024-01-30T04:11:18;77115.34;;;-146.39;32.33
40460;BME280;26164;51.138;16.952;2024-01-30T04:13:45;77168.44;;;-146.39;32.85
40460;BME280;26164;51.138;16.952;2024-01-30T04:16:20;77158.25;;;-146.39;33.00
40460;BME280;26164;51.138;16.952;2024-01-30T04:18:47;77266.44;;;-146.39;33.60
40460;BME280;26164;51.138;16.952;2024-01-30T04:21:14;77295.03;;;-146.39;34.11
40460;BME280;26164;51.138;16.952;2024-01-30T04:23:42;77270.53;;;-146.39;33.98
40460;BME280;26164;51.138;16.952;2024-01-30T04:26:11;77468.59;;;-146.39;35.80
40460;BME280;26164;51.138;16.952;2024-01-30T04:28:37;77262.38;;;-146.39;33.97
40460;BME280;26164;51.138;16.952;2024-01-30T04:31:06;77278.72;;;-146.39;33.70
40460;BME280;26164;51.138;16.952;2024-01-30T04:33:31;77127.59;;;-146.39;33.05
40460;BME280;26164;51.138;16.952;2024-01-30T04:35:59;77164.38;;;-146.39;33.26
40460;BME280;26164;51.138;16.952;2024-01-30T04:38:25;77070.44;;;-146.39;32.31
40460;BME280;26164;51.138;16.952;2024-01-30T04:40:51;77131.69;;;-146.39;32.36
40460;BME280;26164;51.138;16.952;2024-01-30T04:43:17;77115.34;;;-146.39;32.47
40460;BME280;26164;51.138;16.952;2024-01-30T04:45:44;77178.66;;;-146.39;33.00
40460;BME280;26164;51.138;16.952;2024-01-30T04:48:11;77131.69;;;-146.39;32.78
40460;BME280;26164;51.138;16.952;2024-01-30T04:50:37;77225.63;;;-146.39;33.38
40460;BME280;26164;51.138;16.952;2024-01-30T04:53:03;77180.69;;;-146.39;33.25
40460;BME280;26164;51.138;16.952;2024-01-30T04:55:29;77029.59;;;-146.39;32.05
40460;BME280;26164;51.138;16.952;2024-01-30T04:57:55;77050.03;;;-146.39;31.91
40460;BME280;26164;51.138;16.952;2024-01-30T05:00:21;76988.78;;;-146.39;31.44
40460;BME280;26164;51.138;16.952;2024-01-30T05:02:47;77041.84;;;-146.39;31.89
40460;BME280;26164;51.138;16.952;2024-01-30T05:05:17;77058.19;;;-146.39;32.05
40460;BME280;26164;51.138;16.952;2024-01-30T05:07:44;76931.59;;;-146.39;31.37
40460;BME280;26164;51.138;16.952;2024-01-30T05:10:12;76882.59;;;-146.39;30.89
40460;BME280;26164;51.138;16.952;2024-01-30T05:12:40;76970.41;;;-146.39;31.39
40460;BME280;26164;51.138;16.952;2024-01-30T05:15:06;76984.69;;;-146.39;31.42
40460;BME280;26164;51.138;16.952;2024-01-30T05:17:33;76984.69;;;-146.39;31.30
40460;BME280;26164;51.138;16.952;2024-01-30T05:19:59;77080.66;;;-146.39;31.92
40460;BME280;26164;51.138;16.952;2024-01-30T05:22:25;77127.59;;;-146.39;32.30
40460;BME280;26164;51.138;16.952;2024-01-30T05:24:52;77123.53;;;-146.39;32.32
40460;BME280;26164;51.138;16.952;2024-01-30T05:27:19;77201.13;;;-146.39;33.50
40460;BME280;26164;51.138;16.952;2024-01-30T05:29:48;77180.69;;;-146.39;33.03
40460;BME280;26164;51.138;16.952;2024-01-30T05:32:16;77141.91;;;-146.39;32.53
40460;BME280;26164;51.138;16.952;2024-01-30T05:34:47;77158.25;;;-146.39;32.97
40460;BME280;26164;51.138;16.952;2024-01-30T05:37:17;77256.25;;;-146.39;33.69
40460;BME280;26164;51.138;16.952;2024-01-30T05:39:44;77272.56;;;-146.39;33.70
40460;BME280;26164;51.138;16.952;2024-01-30T05:42:12;77237.88;;;-146.39;33.61
40460;BME280;26164;51.138;16.952;2024-01-30T05:56:21;77139.84;;;-146.39;32.43
40460;BME280;26164;51.138;16.952;2024-01-30T05:58:53;77088.81;;;-146.39;32.63
40460;BME280;26164;51.138;16.952;2024-01-30T06:01:46;77168.44;;;-146.39;33.12
40460;BME280;26164;51.138;16.952;2024-01-30T06:04:47;77192.94;;;-146.39;33.43
40460;BME280;26164;51.138;16.952;2024-01-30T06:07:15;77295.03;;;-146.39;33.99
40460;BME280;26164;51.138;16.952;2024-01-30T06:09:43;77311.38;;;-146.39;34.36
40460;BME280;26164;51.138;16.952;2024-01-30T06:12:23;77319.53;;;-146.39;34.14
40460;BME280;26164;51.138;16.952;2024-01-30T06:14:51;77229.69;;;-146.39;33.77
40460;BME280;26164;51.138;16.952;2024-01-30T06:17:20;77462.47;;;-146.39;35.23
40460;BME280;26164;51.138;16.952;2024-01-30T06:19:48;77572.75;;;-146.39;37.03
40460;BME280;26164;51.138;16.952;2024-01-30T06:22:14;77282.78;;;-146.39;34.43
40460;BME280;26164;51.138;16.952;2024-01-30T06:24:41;77299.13;;;-146.39;33.63
40460;BME280;26164;51.138;16.952;2024-01-30T06:27:08;77460.44;;;-146.39;35.19
40460;BME280;26164;51.138;16.952;2024-01-30T06:29:43;77364.47;;;-146.39;34.91
40460;BME280;26164;51.138;16.952;2024-01-30T06:32:49;77295.03;;;-146.39;34.33
40460;BME280;26164;51.138;16.952;2024-01-30T06:35:57;77323.63;;;-146.39;34.17
40460;BME280;26164;51.138;16.952;2024-01-30T06:38:24;77339.97;;;-146.39;34.39
40460;BME280;26164;51.138;16.952;2024-01-30T06:41:05;77356.28;;;-146.39;34.81
40460;BME280;26164;51.138;16.952;2024-01-30T06:43:40;77270.53;;;-146.39;33.95
40460;BME280;26164;51.138;16.952;2024-01-30T06:46:07;77311.38;;;-146.39;34.19
40460;BME280;26164;51.138;16.952;2024-01-30T06:48:35;77315.47;;;-146.39;34.10
40460;BME280;26164;51.138;16.952;2024-01-30T06:51:01;77286.88;;;-146.39;33.76
40460;BME280;26164;51.138;16.952;2024-01-30T06:53:43;77221.53;;;-146.39;33.47
40460;BME280;26164;51.138;16.952;2024-01-30T06:56:13;77388.97;;;-146.39;34.67
40460;BME280;26164;51.138;16.952;2024-01-30T06:58:39;77290.97;;;-146.39;34.13
40460;BME280;26164;51.138;16.952;2024-01-30T07:01:20;77241.94;;;-146.39;34.08
40460;BME280;26164;51.138;16.952;2024-01-30T07:04:02;77217.44;;;-146.39;33.35
40460;BME280;26164;51.138;16.952;2024-01-30T07:06:36;77197.03;;;-146.39;32.80
40460;BME280;26164;51.138;16.952;2024-01-30T07:09:03;77254.19;;;-146.39;33.33
40460;BME280;26164;51.138;16.952;2024-01-30T07:11:32;77329.75;;;-146.39;34.20
40460;BME280;26164;51.138;16.952;2024-01-30T07:17:30;77299.13;;;-146.39;34.26
40460;BME280;26164;51.138;16.952;2024-01-30T07:20:08;77215.41;;;-146.39;33.52
40460;BME280;26164;51.138;16.952;2024-01-30T07:22:35;77213.38;;;-146.39;33.35
40460;BME280;26164;51.138;16.952;2024-01-30T07:25:18;77205.19;;;-146.39;33.08
40460;BME280;26164;51.138;16.952;2024-01-30T07:27:56;77186.81;;;-146.39;33.35
40460;BME280;26164;51.138;16.952;2024-01-30T07:30:41;77213.38;;;-146.39;33.27
40460;BME280;26164;51.138;16.952;2024-01-30T07:33:18;77099.03;;;-146.39;32.50
40460;BME280;26164;51.138;16.952;2024-01-30T07:35:53;77101.06;;;-146.39;32.50
40460;BME280;26164;51.138;16.952;2024-01-30T07:38:39;76992.84;;;-146.39;31.59
40460;BME280;26164;51.138;16.952;2024-01-30T07:41:20;77001.03;;;-146.39;31.57
40460;BME280;26164;51.138;16.952;2024-01-30T07:43:48;77088.81;;;-146.39;32.18
40460;BME280;26164;51.138;16.952;2024-01-30T07:46:29;77148.03;;;-146.39;32.55
40460;BME280;26164;51.138;16.952;2024-01-30T07:49:14;77160.28;;;-146.39;33.10
40460;BME280;26164;51.138;16.952;2024-01-30T07:51:57;77250.13;;;-146.39;33.47
40460;BME280;26164;51.138;16.952;2024-01-30T07:54:38;76945.91;;;-146.39;31.40
40460;BME280;26164;51.138;16.952;2024-01-30T07:57:33;77041.84;;;-146.39;31.92
40460;BME280;26164;51.138;16.952;2024-01-30T08:05:15;76984.69;;;-146.39;31.52
40460;BME280;26164;51.138;16.952;2024-01-30T08:08:00;77058.19;;;-146.39;31.76
40460;BME280;26164;51.138;16.952;2024-01-30T08:11:09;77094.94;;;-146.39;32.51
40460;BME280;26164;51.138;16.952;2024-01-30T08:13:50;77005.09;;;-146.39;31.77
40460;BME280;26164;51.138;16.952;2024-01-30T08:16:31;76919.34;;;-146.39;30.97
40460;BME280;26164;51.138;16.952;2024-01-30T08:19:19;76992.84;;;-146.39;31.54
40460;BME280;26164;51.138;16.952;2024-01-30T08:22:03;76900.97;;;-146.39;30.75
40460;BME280;26164;51.138;16.952;2024-01-30T08:24:52;76886.69;;;-146.39;30.82
40460;BME280;26164;51.138;16.952;2024-01-30T08:27:30;76811.16;;;-146.39;30.16
40460;BME280;26164;51.138;16.952;2024-01-30T08:29:59;76811.16;;;-146.39;30.01
40460;BME280;26164;51.138;16.952;2024-01-30T08:32:29;76809.09;;;-146.39;30.07
40460;BME280;26164;51.138;16.952;2024-01-30T08:34:55;76762.16;;;-146.39;29.66
40460;BME280;26164;51.138;16.952;2024-01-30T08:37:34;76833.59;;;-146.39;30.13
40460;BME280;26164;51.138;16.952;2024-01-30T08:40:02;76780.53;;;-146.39;29.91
40460;BME280;26164;51.138;16.952;2024-01-30T08:43:07;76511.03;;;-146.39;28.22
40460;BME280;26164;51.138;16.952;2024-01-30T08:45:53;76700.91;;;-146.39;29.48
40460;BME280;26164;51.138;16.952;2024-01-30T08:52:33;76751.94;;;-146.39;29.53
40460;BME280;26164;51.138;16.952;2024-01-30T08:55:24;76637.63;;;-146.39;28.97
40460;BME280;26164;51.138;16.952;2024-01-30T08:58:05;76655.97;;;-146.39;28.98
40460;BME280;26164;51.138;16.952;2024-01-30T09:00:50;76698.84;;;-146.39;29.30
40460;BME280;26164;51.138;16.952;2024-01-30T09:03:33;76780.53;;;-146.39;29.52
40460;BME280;26164;51.138;16.952;2024-01-30T09:06:16;76576.38;;;-146.39;28.35
40460;BME280;26164;51.138;16.952;2024-01-30T09:09:00;76784.59;;;-146.39;29.52
40460;BME280;26164;51.138;16.952;2024-01-30T09:11:41;76870.34;;;-146.39;30.16
40460;BME280;26164;51.138;16.952;2024-01-30T09:14:25;76784.59;;;-146.39;29.63
40460;BME280;26164;51.138;16.952;2024-01-30T09:17:09;76858.09;;;-146.39;30.01
40460;BME280;26164;51.138;16.952;2024-01-30T09:19:38;76756.03;;;-146.39;29.39
40460;BME280;26164;51.138;16.952;2024-01-30T09:22:05;76666.19;;;-146.39;29.01
40460;BME280;26164;51.138;16.952;2024-01-30T09:24:48;76641.69;;;-146.39;28.70
40460;BME280;26164;51.138;16.952;2024-01-30T09:27:15;76698.84;;;-146.39;29.11
40460;BME280;26164;51.138;16.952;2024-01-30T09:29:43;76429.38;;;-146.39;27.75
40460;BME280;26164;51.138;16.952;2024-01-30T09:32:24;76537.56;;;-146.39;28.22
40460;BME280;26164;51.138;16.952;2024-01-30T09:35:06;76462.03;;;-146.39;27.77
40460;BME280;26164;51.138;16.952;2024-01-30T09:37:49;76488.59;;;-146.39;27.86
40460;BME280;26164;51.138;16.952;2024-01-30T09:40:33;76509.00;;;-146.39;27.81
40460;BME280;26164;51.138;16.952;2024-01-30T09:43:17;76445.72;;;-146.39;27.56
40460;BME280;26164;51.138;16.952;2024-01-30T09:45:53;76541.66;;;-146.39;27.90
40460;BME280;26164;51.138;16.952;2024-01-30T09:48:26;76543.69;;;-146.39;27.70
40460;BME280;26164;51.138;16.952;2024-01-30T09:51:08;76511.03;;;-146.39;27.49
40460;BME280;26164;51.138;16.952;2024-01-30T09:53:34;76611.06;;;-146.39;27.95
40460;BME280;26164;51.138;16.952;2024-01-30T09:56:16;76617.19;;;-146.39;28.10
40460;BME280;26164;51.138;16.952;2024-01-30T09:58:47;76686.59;;;-146.39;28.73
40460;BME280;26164;51.138;16.952;2024-01-30T10:01:17;76515.13;;;-146.39;28.04
40460;BME280;26164;51.138;16.952;2024-01-30T10:04:01;76609.03;;;-146.39;28.40
40460;BME280;26164;51.138;16.952;2024-01-30T10:06:33;76635.56;;;-146.39;28.58
40460;BME280;26164;51.138;16.952;2024-01-30T10:09:00;76519.22;;;-146.39;27.83
40460;BME280;26164;51.138;16.952;2024-01-30T10:11:44;76539.63;;;-146.39;27.80
40460;BME280;26164;51.138;16.952;2024-01-30T10:14:15;76478.38;;;-146.39;27.45
40460;BME280;26164;51.138;16.952;2024-01-30T10:16:46;76486.53;;;-146.39;27.33
40460;BME280;26164;51.138;16.952;2024-01-30T10:19:27;76531.44;;;-146.39;27.49
40460;BME280;26164;51.138;16.952;2024-01-30T10:22:09;76519.22;;;-146.39;26.96
40460;BME280;26164;51.138;16.952;2024-01-30T10:24:40;76457.97;;;-146.39;26.63
40460;BME280;26164;51.138;16.952;2024-01-30T10:27:08;76392.63;;;-146.39;26.28
40460;BME280;26164;51.138;16.952;2024-01-30T10:29:49;76496.75;;;-146.39;26.75
40460;BME280;26164;51.138;16.952;2024-01-30T10:32:33;76464.09;;;-146.39;26.66
40460;BME280;26164;51.138;16.952;2024-01-30T10:35:15;76396.72;;;-146.39;26.47
40460;BME280;26164;51.138;16.952;2024-01-30T10:37:57;76486.53;;;-146.39;26.67
40460;BME280;26164;51.138;16.952;2024-01-30T10:40:37;76498.78;;;-146.39;26.82
40460;BME280;26164;51.138;16.952;2024-01-30T10:43:08;76478.38;;;-146.39;26.63
40460;BME280;26164;51.138;16.952;2024-01-30T10:45:53;76421.22;;;-146.39;26.42
40460;BME280;26164;51.138;16.952;2024-01-30T10:48:42;76400.81;;;-146.39;26.25
40460;BME280;26164;51.138;16.952;2024-01-30T10:51:15;76408.97;;;-146.39;26.44
40460;BME280;26164;51.138;16.952;2024-01-30T10:53:44;76364.06;;;-146.39;26.28
40460;BME280;26164;51.138;16.952;2024-01-30T10:56:16;76392.63;;;-146.39;26.28
40460;BME280;26164;51.138;16.952;2024-01-30T10:58:42;76462.03;;;-146.39;26.42
40460;BME280;26164;51.138;16.952;2024-01-30T11:01:15;76413.06;;;-146.39;26.23
40460;BME280;26164;51.138;16.952;2024-01-30T11:03:43;76380.38;;;-146.39;26.21
40460;BME280;26164;51.138;16.952;2024-01-30T11:06:16;76323.22;;;-146.39;25.95
40460;BME280;26164;51.138;16.952;2024-01-30T11:08:45;76298.72;;;-146.39;25.90
40460;BME280;26164;51.138;16.952;2024-01-30T11:11:16;76341.59;;;-146.39;26.13
40460;BME280;26164;51.138;16.952;2024-01-30T11:13:45;76413.06;;;-146.39;26.32
40460;BME280;26164;51.138;16.952;2024-01-30T11:16:15;76396.72;;;-146.39;26.01
40460;BME280;26164;51.138;16.952;2024-01-30T11:18:41;76511.03;;;-146.39;26.46
40460;BME280;26164;51.138;16.952;2024-01-30T11:21:13;76351.81;;;-146.39;26.12
40460;BME280;26164;51.138;16.952;2024-01-30T11:23:39;76351.81;;;-146.39;25.83
40460;BME280;26164;51.138;16.952;2024-01-30T11:26:06;76364.06;;;-146.39;26.35
40460;BME280;26164;51.138;16.952;2024-01-30T11:28:33;76359.97;;;-146.39;26.31
40460;BME280;26164;51.138;16.952;2024-01-30T11:31:06;76310.97;;;-146.39;26.60
40460;BME280;26164;51.138;16.952;2024-01-30T11:33:33;76276.28;;;-146.39;26.12
40460;BME280;26164;51.138;16.952;2024-01-30T11:36:15;76380.38;;;-146.39;26.42
40460;BME280;26164;51.138;16.952;2024-01-30T11:38:57;76347.72;;;-146.39;26.33
40460;BME280;26164;51.138;16.952;2024-01-30T11:41:27;76286.47;;;-146.39;25.98
40460;BME280;26164;51.138;16.952;2024-01-30T11:43:54;76284.44;;;-146.39;25.89
40460;BME280;26164;51.138;16.952;2024-01-30T11:46:35;76270.16;;;-146.39;25.97
40460;BME280;26164;51.138;16.952;2024-01-30T11:49:07;76274.22;;;-146.39;26.27
40460;BME280;26164;51.138;16.952;2024-01-30T11:51:33;76319.16;;;-146.39;26.48
40460;BME280;26164;51.138;16.952;2024-01-30T11:54:03;76245.66;;;-146.39;26.09
40460;BME280;26164;51.138;16.952;2024-01-30T11:56:32;76245.66;;;-146.39;26.00
40460;BME280;26164;51.138;16.952;2024-01-30T11:58:59;76327.31;;;-146.39;26.73
40460;BME280;26164;51.138;16.952;2024-01-30T12:01:27;76213.00;;;-146.39;26.38
40460;BME280;26164;51.138;16.952;2024-01-30T12:03:54;76213.00;;;-146.39;26.23
40460;BME280;26164;51.138;16.952;2024-01-30T12:06:20;76298.72;;;-146.39;26.75
40460;BME280;26164;51.138;16.952;2024-01-30T12:09:02;76178.28;;;-146.39;26.25
40460;BME280;26164;51.138;16.952;2024-01-30T12:11:45;76184.41;;;-146.39;26.45
40460;BME280;26164;51.138;16.952;2024-01-30T12:14:28;76188.50;;;-146.39;26.54
40460;BME280;26164;51.138;16.952;2024-01-30T12:17:10;76137.47;;;-146.39;26.34
40460;BME280;26164;51.138;16.952;2024-01-30T12:20:06;76037.44;;;-146.39;25.88
40460;BME280;26164;51.138;16.952;2024-01-30T12:22:39;76102.75;;;-146.39;25.89
40460;BME280;26164;51.138;16.952;2024-01-30T12:25:14;75986.41;;;-146.39;25.55
40460;BME280;26164;51.138;16.952;2024-01-30T12:27:57;75976.22;;;-146.39;25.43
40460;BME280;26164;51.138;16.952;2024-01-30T12:30:27;75951.72;;;-146.39;25.53
40460;BME280;26164;51.138;16.952;2024-01-30T12:33:09;76039.50;;;-146.39;25.45
40460;BME280;26164;51.138;16.952;2024-01-30T12:35:38;75992.53;;;-146.39;25.24
40460;BME280;26164;51.138;16.952;2024-01-30T12:38:03;76027.25;;;-146.39;25.49
40460;BME280;26164;51.138;16.952;2024-01-30T12:40:33;75959.88;;;-146.39;25.06
40460;BME280;26164;51.138;16.952;2024-01-30T12:43:00;76004.78;;;-146.39;25.07
40460;BME280;26164;51.138;16.952;2024-01-30T12:45:41;76066.03;;;-146.39;25.78
40460;BME280;26164;51.138;16.952;2024-01-30T12:48:12;76117.06;;;-146.39;25.71
40460;BME280;26164;51.138;16.952;2024-01-30T12:50:39;76051.72;;;-146.39;25.68
40460;BME280;26164;51.138;16.952;2024-01-30T12:53:08;75984.38;;;-146.39;25.18
40460;BME280;26164;51.138;16.952;2024-01-30T12:55:35;75943.56;;;-146.39;25.16
40460;BME280;26164;51.138;16.952;2024-01-30T12:58:02;75943.56;;;-146.39;25.15
40460;BME280;26164;51.138;16.952;2024-01-30T13:00:28;75980.28;;;-146.39;25.20
40460;BME280;26164;51.138;16.952;2024-01-30T13:02:55;75906.81;;;-146.39;24.56
40460;BME280;26164;51.138;16.952;2024-01-30T13:05:26;75841.50;;;-146.39;24.17
40460;BME280;26164;51.138;16.952;2024-01-30T13:07:54;75872.09;;;-146.39;24.45
40460;BME280;26164;51.138;16.952;2024-01-30T13:10:23;75917.00;;;-146.39;24.70
40460;BME280;26164;51.138;16.952;2024-01-30T13:12:50;75966.00;;;-146.39;24.88
40460;BME280;26164;51.138;16.952;2024-01-30T13:15:19;75890.47;;;-146.39;24.75
40460;BME280;26164;51.138;16.952;2024-01-30T13:17:54;75927.22;;;-146.39;24.79